createdAt,value
2023-09-30T00:00:40.898Z,56.08
2023-09-30T00:01:40.000Z,56.08
2023-09-30T00:02:39.968Z,56.08
2023-09-30T00:03:40.123Z,56.08
2023-09-30T00:04:39.980Z,56.08
2023-09-30T00:05:39.884Z,56.08
2023-09-30T00:06:39.987Z,56.08
2023-09-30T00:07:39.872Z,56.08
2023-09-30T00:08:39.850Z,56.08
2023-09-30T00:09:39.895Z,56.08
2023-09-30T00:10:39.817Z,56.08
2023-09-30T00:11:39.856Z,56.08
2023-09-30T00:12:39.916Z,56.08
2023-09-30T00:13:39.812Z,55.98
2023-09-30T00:14:39.798Z,56.08
2023-09-30T00:15:39.802Z,55.98
2023-09-30T00:16:39.818Z,55.98
2023-09-30T00:17:39.801Z,56.08
2023-09-30T00:18:39.792Z,55.98
2023-09-30T00:19:39.725Z,55.98
2023-09-30T00:20:39.789Z,55.98
2023-09-30T00:21:39.937Z,56.08
2023-09-30T00:22:39.740Z,56.08
2023-09-30T00:23:39.725Z,55.88
2023-09-30T00:24:39.721Z,55.78
2023-09-30T00:25:39.706Z,55.78
2023-09-30T00:26:39.674Z,55.78
2023-09-30T00:27:39.666Z,55.88
2023-09-30T00:28:39.638Z,55.88
2023-09-30T00:29:39.639Z,55.88
2023-09-30T00:30:39.777Z,55.98
2023-09-30T00:31:39.662Z,55.98
2023-09-30T00:32:39.634Z,55.98
2023-09-30T00:33:39.841Z,55.98
2023-09-30T00:34:39.569Z,55.98
2023-09-30T00:35:39.579Z,55.98
2023-09-30T00:36:39.634Z,55.98
2023-09-30T00:37:39.536Z,55.98
2023-09-30T00:38:39.555Z,55.98
2023-09-30T00:39:39.588Z,55.98
2023-09-30T00:40:39.500Z,55.98
2023-09-30T00:41:39.525Z,55.98
2023-09-30T00:42:39.727Z,55.98
2023-09-30T00:43:39.525Z,55.98
2023-09-30T00:44:39.524Z,55.98
2023-09-30T00:45:39.494Z,55.98
2023-09-30T00:46:39.561Z,55.98
2023-09-30T00:47:39.566Z,55.98
2023-09-30T00:48:39.515Z,55.98
2023-09-30T00:49:39.436Z,55.98
2023-09-30T00:50:39.430Z,55.98
2023-09-30T00:51:39.441Z,55.98
2023-09-30T00:52:39.375Z,55.98
2023-09-30T00:53:39.401Z,55.98
2023-09-30T00:54:39.402Z,55.98
2023-09-30T00:55:39.410Z,55.98
2023-09-30T00:56:39.348Z,55.98
2023-09-30T00:57:39.364Z,55.98
2023-09-30T00:58:39.345Z,55.98
2023-09-30T00:59:39.297Z,55.98
2023-09-30T01:00:39.320Z,55.98
2023-09-30T01:01:39.421Z,55.98
2023-09-30T01:02:39.391Z,55.98
2023-09-30T01:03:39.421Z,55.98
2023-09-30T01:04:39.297Z,55.98
2023-09-30T01:05:39.245Z,55.98
2023-09-30T01:06:39.373Z,55.88
2023-09-30T01:07:39.214Z,55.98
2023-09-30T01:08:39.233Z,55.98
2023-09-30T01:09:39.290Z,55.98
2023-09-30T01:10:39.184Z,55.98
2023-09-30T01:11:39.194Z,55.98
2023-09-30T01:12:40.138Z,55.98
2023-09-30T01:13:39.190Z,55.88
2023-09-30T01:14:39.226Z,55.98
2023-09-30T01:15:39.188Z,55.98
2023-09-30T01:16:39.166Z,55.98
2023-09-30T01:17:39.190Z,55.98
2023-09-30T01:18:39.096Z,55.98
2023-09-30T01:19:39.105Z,55.88
2023-09-30T01:20:39.098Z,55.98
2023-09-30T01:21:39.113Z,55.88
2023-09-30T01:22:39.042Z,55.88
2023-09-30T01:23:39.075Z,55.88
2023-09-30T01:24:39.081Z,55.88
2023-09-30T01:25:39.078Z,55.88
2023-09-30T01:26:39.028Z,55.88
2023-09-30T01:27:39.071Z,55.88
2023-09-30T01:28:39.501Z,55.88
2023-09-30T01:29:39.001Z,55.88
2023-09-30T01:30:39.097Z,55.88
2023-09-30T01:31:39.071Z,55.88
2023-09-30T01:32:39.016Z,55.88
2023-09-30T01:33:38.980Z,55.88
2023-09-30T01:34:38.963Z,55.88
2023-09-30T01:35:38.910Z,55.78
2023-09-30T01:36:38.938Z,55.88
2023-09-30T01:37:38.927Z,55.88
2023-09-30T01:38:38.902Z,55.88
2023-09-30T01:39:39.297Z,55.88
2023-09-30T01:40:38.858Z,55.88
2023-09-30T01:41:38.884Z,55.78
2023-09-30T01:42:39.111Z,55.78
2023-09-30T01:43:38.879Z,55.88
2023-09-30T01:44:38.833Z,55.88
2023-09-30T01:45:38.917Z,55.78
2023-09-30T01:46:38.855Z,55.78
2023-09-30T01:47:38.786Z,55.78
2023-09-30T01:48:38.819Z,55.78
2023-09-30T01:49:38.789Z,55.78
2023-09-30T01:50:39.300Z,55.78
2023-09-30T01:51:38.788Z,55.78
2023-09-30T01:52:38.783Z,55.78
2023-09-30T01:53:38.759Z,55.78
2023-09-30T01:54:38.721Z,55.78
2023-09-30T01:55:38.717Z,55.78
2023-09-30T01:56:38.705Z,55.78
2023-09-30T01:57:39.672Z,55.78
2023-09-30T01:58:38.686Z,55.78
2023-09-30T01:59:38.654Z,55.78
2023-09-30T02:00:38.692Z,55.78
2023-09-30T02:01:38.871Z,55.78
2023-09-30T02:02:38.685Z,55.78
2023-09-30T02:03:39.018Z,55.78
2023-09-30T02:04:38.623Z,55.78
2023-09-30T02:05:38.586Z,55.78
2023-09-30T02:06:38.620Z,55.78
2023-09-30T02:07:38.574Z,55.78
2023-09-30T02:08:38.555Z,55.78
2023-09-30T02:09:38.660Z,55.78
2023-09-30T02:10:38.563Z,55.78
2023-09-30T02:11:38.512Z,55.78
2023-09-30T02:12:38.691Z,55.68
2023-09-30T02:13:38.532Z,55.78
2023-09-30T02:14:38.487Z,55.78
2023-09-30T02:15:38.621Z,55.78
2023-09-30T02:16:38.524Z,55.78
2023-09-30T02:17:38.513Z,55.78
2023-09-30T02:18:38.506Z,55.78
2023-09-30T02:19:38.435Z,55.78
2023-09-30T02:20:38.573Z,55.78
2023-09-30T02:21:38.510Z,55.78
2023-09-30T02:22:38.425Z,55.78
2023-09-30T02:23:38.451Z,55.78
2023-09-30T02:24:38.413Z,55.78
2023-09-30T02:25:38.358Z,55.78
2023-09-30T02:26:38.371Z,55.68
2023-09-30T02:27:38.412Z,55.68
2023-09-30T02:28:38.358Z,55.68
2023-09-30T02:29:38.316Z,55.68
2023-09-30T02:30:38.356Z,55.68
2023-09-30T02:31:38.339Z,55.68
2023-09-30T02:32:38.302Z,55.68
2023-09-30T02:33:38.417Z,55.68
2023-09-30T02:34:38.854Z,55.68
2023-09-30T02:35:38.286Z,55.68
2023-09-30T02:36:38.302Z,55.68
2023-09-30T02:37:38.295Z,55.68
2023-09-30T02:38:38.256Z,55.68
2023-09-30T02:39:38.317Z,55.68
2023-09-30T02:40:38.234Z,55.68
2023-09-30T02:41:38.225Z,55.68
2023-09-30T02:42:38.252Z,55.68
2023-09-30T02:43:38.158Z,55.68
2023-09-30T02:44:38.172Z,55.68
2023-09-30T02:45:38.588Z,55.71
2023-09-30T02:46:38.160Z,55.71
2023-09-30T02:47:38.401Z,55.71
2023-09-30T02:48:38.197Z,55.68
2023-09-30T02:49:38.109Z,55.71
2023-09-30T02:50:38.131Z,55.68
2023-09-30T02:51:38.137Z,55.71
2023-09-30T02:52:38.080Z,55.71
2023-09-30T02:53:38.087Z,55.58
2023-09-30T02:54:38.131Z,55.58
2023-09-30T02:55:38.066Z,55.68
2023-09-30T02:56:38.634Z,55.71
2023-09-30T02:57:38.022Z,55.71
2023-09-30T02:58:38.011Z,55.71
2023-09-30T02:59:38.035Z,55.71
2023-09-30T03:00:38.129Z,55.68
2023-09-30T03:01:38.098Z,55.68
2023-09-30T03:02:38.062Z,55.71
2023-09-30T03:03:37.958Z,55.68
2023-09-30T03:04:38.051Z,55.61
2023-09-30T03:05:37.960Z,55.58
2023-09-30T03:06:37.991Z,55.61
2023-09-30T03:07:37.963Z,55.61
2023-09-30T03:08:37.932Z,55.58
2023-09-30T03:09:37.914Z,55.61
2023-09-30T03:10:37.909Z,55.58
2023-09-30T03:11:37.874Z,55.58
2023-09-30T03:12:37.910Z,55.61
2023-09-30T03:13:37.927Z,55.58
2023-09-30T03:14:37.842Z,55.61
2023-09-30T03:15:37.872Z,55.61
2023-09-30T03:16:43.206Z,55.61
2023-09-30T03:17:37.824Z,55.61
2023-09-30T03:18:37.849Z,55.61
2023-09-30T03:19:37.805Z,55.61
2023-09-30T03:20:37.773Z,55.61
2023-09-30T03:21:37.809Z,55.61
2023-09-30T03:22:37.786Z,55.61
2023-09-30T03:23:37.783Z,55.61
2023-09-30T03:24:37.795Z,55.58
2023-09-30T03:25:37.720Z,55.61
2023-09-30T03:26:37.712Z,55.61
2023-09-30T03:27:37.733Z,55.61
2023-09-30T03:28:37.706Z,55.61
2023-09-30T03:29:37.700Z,55.61
2023-09-30T03:30:38.670Z,55.61
2023-09-30T03:31:37.705Z,55.61
2023-09-30T03:32:37.649Z,55.61
2023-09-30T03:33:37.723Z,55.61
2023-09-30T03:34:37.879Z,55.61
2023-09-30T03:35:37.667Z,55.61
2023-09-30T03:36:37.639Z,55.61
2023-09-30T03:37:37.586Z,55.61
2023-09-30T03:38:37.578Z,55.61
2023-09-30T03:39:37.615Z,55.61
2023-09-30T03:40:37.559Z,55.61
2023-09-30T03:41:37.567Z,55.61
2023-09-30T03:42:37.597Z,55.61
2023-09-30T03:43:37.596Z,55.51
2023-09-30T03:44:37.503Z,55.61
2023-09-30T03:45:37.564Z,55.61
2023-09-30T03:46:37.557Z,55.51
2023-09-30T03:47:37.507Z,55.51
2023-09-30T03:48:37.522Z,55.51
2023-09-30T03:49:37.445Z,55.51
2023-09-30T03:50:37.466Z,55.51
2023-09-30T03:51:37.587Z,55.51
2023-09-30T03:52:37.432Z,55.61
2023-09-30T03:53:37.429Z,55.51
2023-09-30T03:54:37.455Z,55.51
2023-09-30T03:55:37.402Z,55.51
2023-09-30T03:56:37.432Z,55.51
2023-09-30T03:57:37.383Z,55.51
2023-09-30T03:58:37.358Z,55.51
2023-09-30T03:59:37.374Z,55.51
2023-09-30T04:00:37.516Z,55.51
2023-09-30T04:01:37.374Z,55.51
2023-09-30T04:02:37.328Z,55.61
2023-09-30T04:03:37.459Z,55.61
2023-09-30T04:04:37.353Z,55.61
2023-09-30T04:05:37.346Z,55.51
2023-09-30T04:06:37.320Z,55.51
2023-09-30T04:07:37.279Z,55.51
2023-09-30T04:08:37.273Z,55.51
2023-09-30T04:09:37.368Z,55.51
2023-09-30T04:10:37.222Z,55.51
2023-09-30T04:11:37.233Z,55.51
2023-09-30T04:12:37.237Z,55.51
2023-09-30T04:13:37.228Z,55.51
2023-09-30T04:14:37.216Z,55.51
2023-09-30T04:15:38.420Z,55.51
2023-09-30T04:16:37.209Z,55.51
2023-09-30T04:17:37.176Z,55.51
2023-09-30T04:18:37.184Z,55.51
2023-09-30T04:19:37.148Z,55.51
2023-09-30T04:20:37.119Z,55.51
2023-09-30T04:21:37.165Z,55.51
2023-09-30T04:22:37.131Z,55.51
2023-09-30T04:23:37.085Z,55.51
2023-09-30T04:24:37.598Z,55.51
2023-09-30T04:25:37.071Z,55.51
2023-09-30T04:26:37.047Z,55.51
2023-09-30T04:27:37.186Z,55.51
2023-09-30T04:28:37.046Z,55.51
2023-09-30T04:29:37.050Z,55.51
2023-09-30T04:30:37.117Z,55.41
2023-09-30T04:31:37.116Z,55.51
2023-09-30T04:32:37.005Z,55.41
2023-09-30T04:33:37.074Z,55.41
2023-09-30T04:34:37.006Z,55.41
2023-09-30T04:35:36.977Z,55.41
2023-09-30T04:36:37.065Z,55.41
2023-09-30T04:37:36.978Z,55.41
2023-09-30T04:38:36.945Z,55.41
2023-09-30T04:39:37.086Z,55.41
2023-09-30T04:40:36.939Z,55.41
2023-09-30T04:41:36.915Z,55.41
2023-09-30T04:42:36.942Z,55.41
2023-09-30T04:43:36.872Z,55.41
2023-09-30T04:44:36.880Z,55.41
2023-09-30T04:45:36.910Z,55.41
2023-09-30T04:46:36.921Z,55.41
2023-09-30T04:47:36.892Z,55.41
2023-09-30T04:48:36.888Z,55.41
2023-09-30T04:49:36.811Z,55.41
2023-09-30T04:50:36.792Z,55.41
2023-09-30T04:51:36.871Z,55.41
2023-09-30T04:52:36.821Z,55.41
2023-09-30T04:53:36.831Z,55.41
2023-09-30T04:54:36.815Z,55.41
2023-09-30T04:55:36.731Z,55.41
2023-09-30T04:56:36.823Z,55.41
2023-09-30T04:57:37.379Z,55.41
2023-09-30T04:58:36.703Z,55.41
2023-09-30T04:59:36.713Z,55.41
2023-09-30T05:00:36.847Z,55.41
2023-09-30T05:01:36.802Z,55.41
2023-09-30T05:02:36.722Z,55.41
2023-09-30T05:03:36.830Z,55.41
2023-09-30T05:04:36.793Z,55.41
2023-09-30T05:05:36.656Z,55.41
2023-09-30T05:06:36.717Z,55.41
2023-09-30T05:07:36.596Z,55.41
2023-09-30T05:08:37.122Z,55.41
2023-09-30T05:09:37.970Z,55.41
2023-09-30T05:10:36.612Z,55.41
2023-09-30T05:11:36.648Z,55.41
2023-09-30T05:12:36.619Z,55.41
2023-09-30T05:13:36.559Z,55.41
2023-09-30T05:14:36.558Z,55.41
2023-09-30T05:15:36.662Z,55.41
2023-09-30T05:16:36.611Z,55.41
2023-09-30T05:17:36.579Z,55.41
2023-09-30T05:18:36.536Z,55.32
2023-09-30T05:19:36.605Z,55.41
2023-09-30T05:20:36.458Z,55.41
2023-09-30T05:21:36.534Z,55.32
2023-09-30T05:22:36.468Z,55.41
2023-09-30T05:23:36.420Z,55.32
2023-09-30T05:24:36.601Z,55.32
2023-09-30T05:25:36.410Z,55.32
2023-09-30T05:26:36.404Z,55.32
2023-09-30T05:27:36.492Z,55.32
2023-09-30T05:28:36.377Z,55.41
2023-09-30T05:29:36.387Z,55.41
2023-09-30T05:30:36.547Z,55.32
2023-09-30T05:31:36.396Z,55.32
2023-09-30T05:32:36.393Z,55.32
2023-09-30T05:33:36.327Z,55.41
2023-09-30T05:34:36.317Z,55.41
2023-09-30T05:35:36.321Z,55.21
2023-09-30T05:36:36.343Z,54.92
2023-09-30T05:37:36.294Z,54.62
2023-09-30T05:38:36.281Z,54.52
2023-09-30T05:39:36.315Z,54.42
2023-09-30T05:40:36.292Z,54.32
2023-09-30T05:41:36.571Z,54.32
2023-09-30T05:42:36.312Z,54.32
2023-09-30T05:43:36.227Z,54.42
2023-09-30T05:44:36.234Z,54.42
2023-09-30T05:45:36.282Z,54.42
2023-09-30T05:46:36.220Z,54.42
2023-09-30T05:47:36.234Z,54.32
2023-09-30T05:48:36.243Z,54.32
2023-09-30T05:49:36.176Z,54.32
2023-09-30T05:50:36.178Z,54.32
2023-09-30T05:51:36.264Z,54.32
2023-09-30T05:52:36.243Z,54.32
2023-09-30T05:53:36.148Z,54.32
2023-09-30T05:54:36.169Z,54.32
2023-09-30T05:55:36.077Z,54.32
2023-09-30T05:56:36.116Z,54.22
2023-09-30T05:57:36.165Z,54.32
2023-09-30T05:58:36.126Z,54.32
2023-09-30T05:59:36.063Z,54.32
2023-09-30T06:00:36.052Z,54.32
2023-09-30T06:01:36.089Z,54.32
2023-09-30T06:02:38.243Z,54.32
2023-09-30T06:03:36.065Z,54.42
2023-09-30T06:04:36.123Z,54.52
2023-09-30T06:05:35.974Z,54.42
2023-09-30T06:06:35.965Z,54.42
2023-09-30T06:07:35.980Z,54.22
2023-09-30T06:08:36.010Z,54.13
2023-09-30T06:09:35.983Z,54.13
2023-09-30T06:10:35.928Z,54.13
2023-09-30T06:11:35.933Z,54.13
2023-09-30T06:12:35.930Z,54.02
2023-09-30T06:13:35.933Z,53.92
2023-09-30T06:14:35.964Z,53.73
2023-09-30T06:15:35.875Z,53.73
2023-09-30T06:16:36.061Z,53.63
2023-09-30T06:17:35.881Z,53.53
2023-09-30T06:18:35.885Z,53.53
2023-09-30T06:19:35.860Z,53.53
2023-09-30T06:20:35.814Z,53.53
2023-09-30T06:21:36.000Z,53.43
2023-09-30T06:22:35.835Z,53.43
2023-09-30T06:23:35.779Z,53.43
2023-09-30T06:24:35.893Z,53.43
2023-09-30T06:25:35.872Z,53.53
2023-09-30T06:26:35.785Z,53.53
2023-09-30T06:27:35.771Z,53.53
2023-09-30T06:28:35.742Z,53.63
2023-09-30T06:29:35.735Z,53.63
2023-09-30T06:30:35.790Z,53.63
2023-09-30T06:31:35.757Z,53.63
2023-09-30T06:32:35.712Z,53.73
2023-09-30T06:33:35.729Z,53.73
2023-09-30T06:34:35.737Z,53.73
2023-09-30T06:35:35.737Z,53.83
2023-09-30T06:36:35.790Z,53.83
2023-09-30T06:37:35.631Z,53.92
2023-09-30T06:38:35.615Z,53.92
2023-09-30T06:39:35.693Z,53.92
2023-09-30T06:40:37.513Z,53.92
2023-09-30T06:41:35.615Z,53.83
2023-09-30T06:42:35.642Z,53.83
2023-09-30T06:43:35.588Z,52.34
2023-09-30T06:44:35.551Z,49.86
2023-09-30T06:45:35.700Z,48.47
2023-09-30T06:46:35.596Z,48.27
2023-09-30T06:47:35.579Z,47.49
2023-09-30T06:48:35.591Z,46.59
2023-09-30T06:49:35.521Z,46.19
2023-09-30T06:50:35.482Z,45.79
2023-09-30T06:51:35.551Z,45.60
2023-09-30T06:52:35.485Z,45.40
2023-09-30T06:53:35.508Z,45.72
2023-09-30T06:54:35.496Z,45.42
2023-09-30T06:55:35.430Z,45.42
2023-09-30T06:56:35.426Z,45.42
2023-09-30T06:57:35.467Z,45.45
2023-09-30T06:58:35.588Z,45.45
2023-09-30T06:59:35.422Z,45.54
2023-09-30T07:00:35.455Z,45.54
2023-09-30T07:01:35.441Z,45.47
2023-09-30T07:02:35.466Z,45.67
2023-09-30T07:03:35.418Z,45.86
2023-09-30T07:04:35.410Z,45.86
2023-09-30T07:05:35.348Z,45.86
2023-09-30T07:06:35.368Z,45.79
2023-09-30T07:07:35.320Z,45.79
2023-09-30T07:08:35.310Z,45.98
2023-09-30T07:09:35.347Z,45.98
2023-09-30T07:10:35.263Z,45.89
2023-09-30T07:11:35.298Z,45.89
2023-09-30T07:12:35.313Z,45.98
2023-09-30T07:13:35.270Z,46.08
2023-09-30T07:14:35.229Z,46.19
2023-09-30T07:15:35.305Z,46.20
2023-09-30T07:16:35.247Z,46.20
2023-09-30T07:17:35.631Z,46.41
2023-09-30T07:18:35.302Z,46.50
2023-09-30T07:19:35.174Z,46.70
2023-09-30T07:20:35.236Z,46.90
2023-09-30T07:21:35.200Z,47.10
2023-09-30T07:22:46.147Z,47.20
2023-09-30T07:23:35.191Z,47.22
2023-09-30T07:24:35.255Z,47.32
2023-09-30T07:25:35.196Z,47.32
2023-09-30T07:26:35.328Z,47.42
2023-09-30T07:27:35.145Z,47.42
2023-09-30T07:28:35.104Z,47.62
2023-09-30T07:29:35.068Z,47.72
2023-09-30T07:30:35.073Z,47.62
2023-09-30T07:31:35.348Z,47.72
2023-09-30T07:32:35.054Z,47.62
2023-09-30T07:33:35.182Z,47.72
2023-09-30T07:34:35.050Z,47.92
2023-09-30T07:35:35.045Z,47.82
2023-09-30T07:36:35.074Z,47.72
2023-09-30T07:37:34.977Z,47.62
2023-09-30T07:38:34.974Z,47.62
2023-09-30T07:39:35.011Z,48.02
2023-09-30T07:40:34.994Z,47.72
2023-09-30T07:41:34.992Z,47.72
2023-09-30T07:42:35.101Z,47.94
2023-09-30T07:43:34.948Z,48.54
2023-09-30T07:44:34.898Z,48.64
2023-09-30T07:45:34.978Z,48.83
2023-09-30T07:46:34.978Z,48.64
2023-09-30T07:47:35.082Z,48.64
2023-09-30T07:48:34.979Z,48.83
2023-09-30T07:49:34.854Z,48.74
2023-09-30T07:50:34.870Z,48.61
2023-09-30T07:51:34.879Z,48.61
2023-09-30T07:52:34.836Z,48.61
2023-09-30T07:53:34.871Z,48.71
2023-09-30T07:54:34.840Z,48.61
2023-09-30T07:55:34.783Z,48.61
2023-09-30T07:56:34.814Z,48.61
2023-09-30T07:57:34.817Z,48.71
2023-09-30T07:58:34.846Z,48.81
2023-09-30T07:59:34.906Z,48.71
2023-09-30T08:00:34.797Z,48.61
2023-09-30T08:01:34.756Z,48.61
2023-09-30T08:02:34.841Z,48.71
2023-09-30T08:03:34.972Z,48.71
2023-09-30T08:04:34.789Z,48.81
2023-09-30T08:05:34.713Z,48.81
2023-09-30T08:06:34.722Z,48.91
2023-09-30T08:07:34.662Z,49.11
2023-09-30T08:08:34.660Z,49.21
2023-09-30T08:09:34.680Z,49.51
2023-09-30T08:10:34.636Z,49.61
2023-09-30T08:11:34.662Z,49.71
2023-09-30T08:12:34.799Z,49.80
2023-09-30T08:13:34.670Z,49.91
2023-09-30T08:14:34.599Z,50.01
2023-09-30T08:15:34.640Z,50.01
2023-09-30T08:16:34.676Z,50.01
2023-09-30T08:17:34.622Z,50.20
2023-09-30T08:18:34.613Z,50.40
2023-09-30T08:19:34.528Z,50.31
2023-09-30T08:20:34.545Z,50.40
2023-09-30T08:21:34.603Z,50.40
2023-09-30T08:22:34.505Z,50.38
2023-09-30T08:23:34.546Z,50.48
2023-09-30T08:24:34.548Z,50.38
2023-09-30T08:25:34.518Z,50.28
2023-09-30T08:26:34.537Z,50.28
2023-09-30T08:27:34.571Z,49.98
2023-09-30T08:28:34.454Z,49.68
2023-09-30T08:29:34.478Z,49.46
2023-09-30T08:30:34.578Z,49.36
2023-09-30T08:31:34.615Z,49.46
2023-09-30T08:32:34.433Z,49.16
2023-09-30T08:33:34.530Z,49.16
2023-09-30T08:34:34.395Z,49.19
2023-09-30T08:35:34.363Z,48.86
2023-09-30T08:36:34.549Z,48.77
2023-09-30T08:37:34.600Z,48.66
2023-09-30T08:38:34.323Z,48.47
2023-09-30T08:39:34.346Z,48.27
2023-09-30T08:40:34.293Z,47.87
2023-09-30T08:41:34.319Z,47.77
2023-09-30T08:42:34.903Z,47.99
2023-09-30T08:43:34.571Z,47.99
2023-09-30T08:44:34.290Z,47.97
2023-09-30T08:45:34.441Z,47.89
2023-09-30T08:46:34.353Z,47.99
2023-09-30T08:47:34.273Z,48.10
2023-09-30T08:48:34.288Z,48.19
2023-09-30T08:49:34.239Z,48.29
2023-09-30T08:50:34.201Z,48.59
2023-09-30T08:51:34.438Z,48.89
2023-09-30T08:52:35.733Z,48.89
2023-09-30T08:53:34.202Z,49.49
2023-09-30T08:54:34.217Z,49.71
2023-09-30T08:55:34.155Z,49.80
2023-09-30T08:56:34.157Z,50.01
2023-09-30T08:57:34.339Z,50.10
2023-09-30T08:58:34.264Z,50.31
2023-09-30T08:59:34.185Z,50.60
2023-09-30T09:00:34.181Z,50.70
2023-09-30T09:01:34.200Z,50.70
2023-09-30T09:02:34.209Z,50.80
2023-09-30T09:03:34.168Z,50.70
2023-09-30T09:04:34.096Z,50.68
2023-09-30T09:05:34.150Z,51.28
2023-09-30T09:06:34.148Z,51.37
2023-09-30T09:07:34.045Z,51.47
2023-09-30T09:08:34.080Z,51.57
2023-09-30T09:09:34.136Z,51.47
2023-09-30T09:10:34.027Z,51.47
2023-09-30T09:11:34.005Z,51.47
2023-09-30T09:12:34.006Z,51.37
2023-09-30T09:13:34.037Z,51.28
2023-09-30T09:14:33.969Z,51.17
2023-09-30T09:15:34.329Z,51.28
2023-09-30T09:16:34.012Z,51.35
2023-09-30T09:17:34.041Z,51.35
2023-09-30T09:18:33.932Z,51.35
2023-09-30T09:19:33.945Z,51.25
2023-09-30T09:20:33.903Z,51.25
2023-09-30T09:21:33.930Z,51.35
2023-09-30T09:22:33.837Z,51.35
2023-09-30T09:23:33.948Z,51.35
2023-09-30T09:24:33.867Z,51.45
2023-09-30T09:25:33.840Z,51.35
2023-09-30T09:26:33.835Z,51.35
2023-09-30T09:27:34.280Z,51.35
2023-09-30T09:28:33.831Z,51.45
2023-09-30T09:29:33.804Z,51.45
2023-09-30T09:30:33.836Z,51.45
2023-09-30T09:31:33.783Z,51.45
2023-09-30T09:32:33.775Z,51.45
2023-09-30T09:33:33.805Z,51.54
2023-09-30T09:34:33.734Z,51.45
2023-09-30T09:35:33.709Z,51.52
2023-09-30T09:36:33.747Z,51.62
2023-09-30T09:37:33.679Z,51.72
2023-09-30T09:38:33.661Z,51.72
2023-09-30T09:39:33.785Z,51.72
2023-09-30T09:40:33.637Z,51.72
2023-09-30T09:41:33.729Z,51.72
2023-09-30T09:42:37.016Z,51.72
2023-09-30T09:43:33.621Z,51.72
2023-09-30T09:44:33.659Z,51.72
2023-09-30T09:45:34.380Z,51.72
2023-09-30T09:46:33.643Z,51.72
2023-09-30T09:47:33.662Z,51.72
2023-09-30T09:48:33.595Z,51.72
2023-09-30T09:49:33.573Z,51.72
2023-09-30T09:50:33.551Z,51.82
2023-09-30T09:51:33.576Z,51.92
2023-09-30T09:52:33.652Z,52.02
2023-09-30T09:53:33.796Z,52.02
2023-09-30T09:54:33.565Z,52.12
2023-09-30T09:55:33.521Z,52.22
2023-09-30T09:56:33.484Z,52.22
2023-09-30T09:57:33.504Z,52.42
2023-09-30T09:58:33.473Z,52.51
2023-09-30T09:59:33.467Z,52.61
2023-09-30T10:00:33.459Z,52.72
2023-09-30T10:01:33.462Z,52.81
2023-09-30T10:02:33.488Z,53.01
2023-09-30T10:03:33.439Z,53.11
2023-09-30T10:04:33.415Z,53.11
2023-09-30T10:05:33.395Z,53.21
2023-09-30T10:06:33.414Z,53.31
2023-09-30T10:07:33.371Z,53.31
2023-09-30T10:08:33.356Z,53.41
2023-09-30T10:09:33.349Z,53.41
2023-09-30T10:10:33.306Z,53.38
2023-09-30T10:11:33.336Z,53.61
2023-09-30T10:12:35.177Z,53.68
2023-09-30T10:13:33.304Z,53.78
2023-09-30T10:14:33.319Z,53.78
2023-09-30T10:15:33.319Z,53.88
2023-09-30T10:16:33.338Z,53.88
2023-09-30T10:17:33.261Z,53.28
2023-09-30T10:18:33.249Z,52.09
2023-09-30T10:19:33.249Z,51.50
2023-09-30T10:20:33.217Z,50.90
2023-09-30T10:21:33.261Z,50.21
2023-09-30T10:22:33.234Z,49.71
2023-09-30T10:23:33.178Z,49.61
2023-09-30T10:24:33.201Z,49.41
2023-09-30T10:25:33.205Z,49.51
2023-09-30T10:26:33.156Z,49.71
2023-09-30T10:27:33.643Z,49.81
2023-09-30T10:28:33.150Z,50.13
2023-09-30T10:29:33.228Z,50.21
2023-09-30T10:30:33.116Z,50.21
2023-09-30T10:31:33.266Z,50.11
2023-09-30T10:32:33.084Z,50.01
2023-09-30T10:33:33.129Z,49.91
2023-09-30T10:34:33.090Z,49.91
2023-09-30T10:35:33.045Z,49.71
2023-09-30T10:36:33.071Z,49.51
2023-09-30T10:37:33.019Z,49.51
2023-09-30T10:38:33.034Z,49.51
2023-09-30T10:39:33.078Z,49.54
2023-09-30T10:40:32.991Z,49.93
2023-09-30T10:41:33.035Z,50.23
2023-09-30T10:42:33.008Z,50.43
2023-09-30T10:43:33.035Z,50.73
2023-09-30T10:44:32.999Z,51.12
2023-09-30T10:45:33.013Z,51.32
2023-09-30T10:46:32.946Z,51.42
2023-09-30T10:47:32.951Z,51.72
2023-09-30T10:48:32.961Z,51.92
2023-09-30T10:49:32.953Z,52.02
2023-09-30T10:50:32.907Z,52.12
2023-09-30T10:51:32.921Z,52.22
2023-09-30T10:52:32.889Z,52.42
2023-09-30T10:53:32.846Z,52.49
2023-09-30T10:54:32.878Z,52.59
2023-09-30T10:55:32.847Z,52.69
2023-09-30T10:56:32.838Z,52.69
2023-09-30T10:57:32.830Z,52.79
2023-09-30T10:58:32.803Z,52.79
2023-09-30T10:59:32.814Z,52.89
2023-09-30T11:00:32.942Z,52.89
2023-09-30T11:01:32.903Z,52.98
2023-09-30T11:02:33.051Z,52.98
2023-09-30T11:03:32.978Z,53.08
2023-09-30T11:04:32.915Z,53.08
2023-09-30T11:05:52.716Z,53.08
2023-09-30T11:06:32.752Z,53.08
2023-09-30T11:07:32.976Z,52.98
2023-09-30T11:08:32.760Z,52.98
2023-09-30T11:09:32.755Z,52.98
2023-09-30T11:10:32.695Z,53.08
2023-09-30T11:11:32.684Z,53.08
2023-09-30T11:12:32.780Z,53.08
2023-09-30T11:13:32.648Z,53.08
2023-09-30T11:14:32.676Z,53.19
2023-09-30T11:15:32.690Z,53.19
2023-09-30T11:16:32.646Z,53.28
2023-09-30T11:17:32.618Z,53.28
2023-09-30T11:18:32.622Z,53.28
2023-09-30T11:19:32.642Z,53.28
2023-09-30T11:20:32.556Z,53.38
2023-09-30T11:21:32.584Z,53.38
2023-09-30T11:22:32.593Z,53.38
2023-09-30T11:23:32.512Z,53.48
2023-09-30T11:24:32.571Z,53.48
2023-09-30T11:25:32.494Z,53.38
2023-09-30T11:26:32.499Z,53.38
2023-09-30T11:27:32.574Z,53.38
2023-09-30T11:28:32.502Z,53.38
2023-09-30T11:29:32.475Z,53.48
2023-09-30T11:30:32.519Z,53.48
2023-09-30T11:31:32.565Z,53.48
2023-09-30T11:32:32.446Z,53.58
2023-09-30T11:33:32.866Z,53.58
2023-09-30T11:34:32.430Z,53.58
2023-09-30T11:35:32.383Z,53.68
2023-09-30T11:36:32.443Z,53.68
2023-09-30T11:37:32.365Z,53.68
2023-09-30T11:38:32.393Z,53.68
2023-09-30T11:39:32.457Z,53.78
2023-09-30T11:40:32.330Z,53.78
2023-09-30T11:41:32.350Z,53.78
2023-09-30T11:42:32.373Z,53.78
2023-09-30T11:43:32.311Z,53.78
2023-09-30T11:44:32.404Z,53.78
2023-09-30T11:45:32.324Z,53.78
2023-09-30T11:46:32.302Z,53.78
2023-09-30T11:47:32.428Z,53.78
2023-09-30T11:48:32.311Z,53.78
2023-09-30T11:49:32.260Z,53.78
2023-09-30T11:50:32.437Z,53.88
2023-09-30T11:51:32.249Z,53.78
2023-09-30T11:52:32.230Z,53.88
2023-09-30T11:53:32.193Z,53.88
2023-09-30T11:54:32.225Z,53.88
2023-09-30T11:55:32.226Z,53.88
2023-09-30T11:56:32.221Z,53.88
2023-09-30T11:57:32.305Z,53.88
2023-09-30T11:58:32.166Z,53.85
2023-09-30T11:59:32.177Z,53.88
2023-09-30T12:00:32.186Z,53.85
2023-09-30T12:01:32.443Z,53.88
2023-09-30T12:02:32.197Z,53.88
2023-09-30T12:03:32.180Z,53.85
2023-09-30T12:04:32.209Z,53.85
2023-09-30T12:05:32.056Z,53.85
2023-09-30T12:06:32.478Z,53.85
2023-09-30T12:07:32.063Z,53.85
2023-09-30T12:08:32.072Z,53.96
2023-09-30T12:09:32.109Z,53.96
2023-09-30T12:10:32.039Z,53.85
2023-09-30T12:11:32.006Z,53.85
2023-09-30T12:12:32.038Z,53.85
2023-09-30T12:13:31.970Z,53.85
2023-09-30T12:14:31.964Z,53.85
2023-09-30T12:15:32.009Z,53.96
2023-09-30T12:16:31.979Z,53.96
2023-09-30T12:17:32.009Z,53.96
2023-09-30T12:18:31.936Z,53.96
2023-09-30T12:19:32.011Z,53.96
2023-09-30T12:20:31.917Z,53.96
2023-09-30T12:21:31.947Z,54.05
2023-09-30T12:22:31.931Z,54.05
2023-09-30T12:23:31.862Z,54.05
2023-09-30T12:24:31.911Z,54.05
2023-09-30T12:25:31.887Z,54.05
2023-09-30T12:26:31.902Z,54.05
2023-09-30T12:27:31.879Z,54.05
2023-09-30T12:28:32.374Z,54.05
2023-09-30T12:29:31.830Z,54.05
2023-09-30T12:30:31.855Z,54.05
2023-09-30T12:31:46.105Z,54.05
2023-09-30T12:32:31.880Z,54.05
2023-09-30T12:33:31.832Z,54.05
2023-09-30T12:34:31.787Z,54.05
2023-09-30T12:35:31.777Z,54.15
2023-09-30T12:36:31.800Z,54.15
2023-09-30T12:37:31.711Z,54.05
2023-09-30T12:38:31.702Z,54.05
2023-09-30T12:39:31.976Z,54.15
2023-09-30T12:40:31.685Z,54.15
2023-09-30T12:41:31.703Z,54.15
2023-09-30T12:42:31.703Z,54.15
2023-09-30T12:43:31.647Z,54.05
2023-09-30T12:44:31.668Z,54.05
2023-09-30T12:45:31.686Z,54.05
2023-09-30T12:46:31.654Z,54.15
2023-09-30T12:47:31.655Z,54.15
2023-09-30T12:48:31.614Z,54.15
2023-09-30T12:49:31.613Z,54.15
2023-09-30T12:50:31.653Z,54.15
2023-09-30T12:51:31.583Z,54.15
2023-09-30T12:52:31.575Z,54.15